Terminal Aerodrome Forecast
Issued by NWS Cleveland, OH

Home | Current Version | Previous Version | Graphics & Text | Print | Product List | Glossary On
Versions: 1 2 3 4 5 6 7 8 9 10 11 12 13 14 15 16 17 18 19 20 21 22 23 24 25 26 27
678
FTUS41 KCLE 230540
TAFCLE
TAF
KCLE 230540Z 2306/2412 VRB03KT P6SM SCT100 OVC250
     FM231500 32005KT P6SM BKN100 OVC250
     FM231900 36008KT P6SM SCT050 OVC100
     FM232300 02010KT P6SM SCT025 OVC050
     FM240200 04010KT P6SM BKN025 OVC050
     FM240900 04008KT P6SM SCT025 BKN150=

USA.gov is the U.S. government's official web portal to all federal, state and local government web resources and services.